Time;durP1;ratioP1;P1;durP2;ratioP2;P2;SDS_P1;SDS_P2;PMS_P1;PMS_P2;Temp;Humidity;BMP_temperature;BMP_pressure;BME280_temperature;BME280_humidity;BME280_pressure;Samples;Min_cycle;Max_cycle;Signal;HPM_P1;HPM_P2
2022/01/27 00:01:07;;;;;;;58.17;18.70;;;;;;;;;;4987092;28;20323;-69
2022/01/27 00:05:39;;;;;;;43.70;18.23;;;;;;;;;;4987666;28;20038;-69
2022/01/27 00:08:12;;;;;;;40.65;18.40;;;;;;;;;;4974974;28;20093;-68
2022/01/27 00:13:28;;;;;;;54.85;19.85;;;;;;;;;;5001948;28;21901;-70
2022/01/27 00:16:00;;;;;;;;;;;;;;;;;;4987607;28;20044;-71
2022/01/27 00:18:26;;;;;;;58.10;21.27;;;;;;;;;;4986799;28;20644;-69
2022/01/27 00:20:51;;;;;;;62.95;20.70;;;;;;;;;;4986977;28;20184;-68
2022/01/27 00:23:19;;;;;;;53.53;21.45;;;;;;;;;;4986792;28;21073;-69
2022/01/27 00:25:45;;;;;;;53.50;21.25;;;;;;;;;;4986632;28;20042;-71
2022/01/27 00:28:10;;;;;;;52.72;21.30;;;;;;;;;;4986626;28;20029;-69
2022/01/27 00:30:37;;;;;;;56.60;21.17;;;;;;;;;;4990911;28;21895;-68
2022/01/27 00:33:03;;;;;;;48.28;21.08;;;;;;;;;;4986691;28;21969;-68
2022/01/27 00:35:29;;;;;;;49.28;20.67;;;;;;;;;;4986484;28;20041;-69
2022/01/27 00:37:55;;;;;;;51.28;21.58;;;;;;;;;;4986373;28;20058;-70
2022/01/27 00:40:22;;;;;;;52.80;22.02;;;;;;;;;;4987236;28;20068;-69
2022/01/27 00:42:47;;;;;;;51.72;21.98;;;;;;;;;;4984224;28;20043;-70
2022/01/27 00:45:12;;;;;;;64.70;23.70;;;;;;;;;;4986656;28;20096;-69
2022/01/27 00:47:39;;;;;;;49.67;22.27;;;;;;;;;;4986793;28;20034;-69
2022/01/27 00:50:05;;;;;;;67.50;24.35;;;;;;;;;;4986167;28;20022;-70
2022/01/27 00:52:39;;;;;;;60.38;23.55;;;;;;;;;;4985582;28;20041;-68
2022/01/27 00:55:06;;;;;;;58.13;23.02;;;;;;;;;;4974446;28;20038;-69
2022/01/27 00:58:05;;;;;;;51.70;22.55;;;;;;;;;;4987197;28;20458;-69
2022/01/27 01:00:24;;;;;;;59.63;22.20;;;;;;;;;;4986285;28;20054;-69
2022/01/27 01:02:56;;;;;;;64.60;21.52;;;;;;;;;;4988281;28;20399;-69
2022/01/27 01:07:51;;;;;;;47.17;21.08;;;;;;;;;;4990771;28;20539;-70
2022/01/27 01:15:37;;;;;;;55.00;20.88;;;;;;;;;;4989306;28;20352;-69
2022/01/27 01:31:52;;;;;;;48.90;20.27;;;;;;;;;;4987325;28;20154;-69
2022/01/27 01:34:21;;;;;;;49.63;21.15;;;;;;;;;;4987585;28;20034;-70
2022/01/27 01:37:01;;;;;;;52.80;20.55;;;;;;;;;;4989117;28;20049;-69
2022/01/27 01:39:29;;;;;;;54.08;19.35;;;;;;;;;;4989958;28;20058;-70
2022/01/27 01:41:55;;;;;;;51.45;19.65;;;;;;;;;;4993015;28;20227;-70
2022/01/27 01:44:21;;;;;;;51.47;20.05;;;;;;;;;;4989200;28;20041;-69
2022/01/27 01:46:46;;;;;;;65.72;19.98;;;;;;;;;;4988875;28;20155;-69
2022/01/27 01:49:12;;;;;;;49.90;18.90;;;;;;;;;;4993030;28;20076;-69
2022/01/27 01:51:38;;;;;;;49.30;18.25;;;;;;;;;;4988784;28;20337;-70
2022/01/27 01:54:04;;;;;;;59.33;18.67;;;;;;;;;;4987224;28;20049;-69
2022/01/27 01:56:29;;;;;;;45.97;17.42;;;;;;;;;;4989156;28;20030;-69
2022/01/27 01:58:54;;;;;;;47.03;18.60;;;;;;;;;;4976726;28;20462;-70
2022/01/27 02:01:20;;;;;;;60.53;19.13;;;;;;;;;;4989166;28;20030;-68
2022/01/27 02:03:46;;;;;;;54.33;19.92;;;;;;;;;;4976490;28;20037;-70
2022/01/27 02:06:25;;;;;;;59.75;20.17;;;;;;;;;;4988252;28;20661;-69
2022/01/27 02:19:59;;;;;;;67.03;22.25;;;;;;;;;;4987741;28;20037;-68
2022/01/27 02:22:25;;;;;;;66.80;22.85;;;;;;;;;;4988314;28;20099;-69
2022/01/27 02:24:51;;;;;;;55.58;19.45;;;;;;;;;;4987720;28;20038;-69
2022/01/27 02:27:17;;;;;;;61.53;21.50;;;;;;;;;;4993028;28;20100;-68
2022/01/27 02:29:44;;;;;;;56.33;20.77;;;;;;;;;;4988077;28;20034;-68
2022/01/27 02:32:10;;;;;;;58.63;19.30;;;;;;;;;;4987733;28;20050;-69
2022/01/27 02:34:35;;;;;;;51.55;19.17;;;;;;;;;;4988389;28;20026;-69
2022/01/27 02:37:02;;;;;;;58.28;18.92;;;;;;;;;;4960899;28;20493;-69
2022/01/27 02:39:27;;;;;;;53.78;19.52;;;;;;;;;;4988102;28;20043;-69
2022/01/27 02:42:00;;;;;;;60.33;19.15;;;;;;;;;;4987027;28;20553;-68
2022/01/27 02:44:25;;;;;;;55.65;19.92;;;;;;;;;;4987926;28;20068;-70
2022/01/27 02:46:51;;;;;;;60.72;18.25;;;;;;;;;;4988165;28;20747;-69
2022/01/27 02:49:17;;;;;;;61.42;18.90;;;;;;;;;;4988388;28;20042;-69
2022/01/27 02:51:43;;;;;;;63.42;19.15;;;;;;;;;;4988254;28;20037;-69
2022/01/27 02:54:08;;;;;;;53.90;18.02;;;;;;;;;;4986588;28;20030;-69
2022/01/27 02:56:33;;;;;;;59.92;18.67;;;;;;;;;;4991551;28;20172;-68
2022/01/27 02:59:01;;;;;;;64.72;18.45;;;;;;;;;;4988446;28;20121;-68
2022/01/27 03:01:27;;;;;;;55.97;17.00;;;;;;;;;;4988189;28;20482;-69
2022/01/27 03:03:54;;;;;;;53.60;18.80;;;;;;;;;;4985504;28;20036;-69
2022/01/27 03:06:20;;;;;;;55.42;16.80;;;;;;;;;;4987901;28;20486;-69
2022/01/27 03:08:45;;;;;;;57.65;17.42;;;;;;;;;;4987320;28;20165;-70
2022/01/27 03:11:17;;;;;;;58.40;17.52;;;;;;;;;;4987243;28;20027;-69
2022/01/27 03:13:45;;;;;;;58.00;17.27;;;;;;;;;;4986561;28;20112;-69
2022/01/27 03:16:11;;;;;;;55.88;17.40;;;;;;;;;;4991784;28;20050;-69
2022/01/27 03:18:36;;;;;;;47.17;15.77;;;;;;;;;;4987058;28;20453;-69
2022/01/27 03:21:06;;;;;;;55.30;17.55;;;;;;;;;;4987168;28;20548;-69
2022/01/27 03:23:33;;;;;;;60.70;16.90;;;;;;;;;;4991049;28;20587;-69
2022/01/27 03:25:58;;;;;;;57.97;16.15;;;;;;;;;;4986504;28;20053;-68
2022/01/27 03:28:27;;;;;;;58.92;16.50;;;;;;;;;;4985934;28;20545;-69
2022/01/27 03:30:52;;;;;;;64.30;16.23;;;;;;;;;;4986720;28;20068;-69
2022/01/27 03:33:17;;;;;;;49.33;15.13;;;;;;;;;;4991422;28;20474;-69
2022/01/27 03:35:43;;;;;;;55.42;16.15;;;;;;;;;;4987665;28;21894;-71
2022/01/27 03:38:08;;;;;;;56.67;15.85;;;;;;;;;;4986549;28;20049;-69
2022/01/27 03:40:34;;;;;;;52.50;14.40;;;;;;;;;;4987130;28;20062;-68
2022/01/27 03:43:05;;;;;;;48.70;15.25;;;;;;;;;;4987183;28;20038;-69
2022/01/27 03:45:31;;;;;;;61.83;15.35;;;;;;;;;;4987247;28;20030;-69
2022/01/27 03:47:56;;;;;;;53.05;14.05;;;;;;;;;;4975677;28;20172;-69
2022/01/27 03:50:24;;;;;;;53.30;15.40;;;;;;;;;;4985455;28;20033;-70
2022/01/27 03:52:52;;;;;;;56.80;14.63;;;;;;;;;;4985199;28;20034;-70
2022/01/27 03:55:17;;;;;;;48.05;13.75;;;;;;;;;;4987081;28;20018;-70
2022/01/27 03:57:42;;;;;;;56.90;14.15;;;;;;;;;;4986818;28;20026;-68
2022/01/27 04:00:12;;;;;;;46.95;13.98;;;;;;;;;;4986713;28;20034;-68
2022/01/27 04:02:41;;;;;;;57.90;14.80;;;;;;;;;;4991785;28;20072;-70
2022/01/27 04:05:07;;;;;;;47.35;14.93;;;;;;;;;;4986365;28;20248;-71
2022/01/27 04:07:33;;;;;;;51.08;14.60;;;;;;;;;;4986500;28;20026;-69
2022/01/27 04:10:01;;;;;;;60.28;15.60;;;;;;;;;;4987298;28;20037;-69
2022/01/27 04:12:26;;;;;;;63.65;15.32;;;;;;;;;;4986900;28;20087;-69
2022/01/27 04:14:51;;;;;;;57.47;15.05;;;;;;;;;;4985188;28;20494;-69
2022/01/27 04:17:16;;;;;;;59.42;14.80;;;;;;;;;;4986573;28;20033;-68
2022/01/27 04:19:42;;;;;;;49.38;15.13;;;;;;;;;;4974137;28;20096;-69
2022/01/27 04:22:09;;;;;;;57.33;15.38;;;;;;;;;;4985944;28;20406;-69
2022/01/27 04:24:37;;;;;;;56.17;15.65;;;;;;;;;;4990235;28;20149;-68
2022/01/27 04:27:07;;;;;;;50.67;14.38;;;;;;;;;;4986761;28;20038;-69
2022/01/27 04:29:35;;;;;;;47.10;14.10;;;;;;;;;;4990424;28;20137;-69
2022/01/27 04:32:02;;;;;;;49.80;14.18;;;;;;;;;;4986891;28;20045;-69
2022/01/27 04:34:27;;;;;;;53.97;14.13;;;;;;;;;;4986185;28;20045;-69
2022/01/27 04:36:55;;;;;;;50.58;14.15;;;;;;;;;;4986816;28;20061;-69
2022/01/27 04:39:39;;;;;;;52.90;14.05;;;;;;;;;;4986045;28;20045;-69
2022/01/27 04:42:12;;;;;;;55.67;13.95;;;;;;;;;;4989002;28;20139;-68
2022/01/27 04:44:49;;;;;;;55.25;13.43;;;;;;;;;;4990065;28;20543;-68
2022/01/27 04:47:25;;;;;;;67.32;13.68;;;;;;;;;;4995026;28;20040;-69
2022/01/27 04:49:50;;;;;;;55.42;14.40;;;;;;;;;;4993886;28;20486;-69
2022/01/27 04:52:18;;;;;;;51.40;13.25;;;;;;;;;;4990054;28;20030;-69
2022/01/27 04:55:26;;;;;;;55.00;14.93;;;;;;;;;;4977807;28;20501;-70
2022/01/27 04:57:33;;;;;;;52.80;13.93;;;;;;;;;;4989723;28;20038;-69
2022/01/27 04:59:58;;;;;;;43.72;13.68;;;;;;;;;;4989998;28;20130;-68
2022/01/27 05:02:47;;;;;;;54.08;13.90;;;;;;;;;;4989859;28;20401;-69
2022/01/27 05:05:12;;;;;;;54.47;13.95;;;;;;;;;;4989626;28;21927;-69
2022/01/27 05:07:38;;;;;;;47.00;13.05;;;;;;;;;;4988613;28;20072;-70
2022/01/27 05:10:10;;;;;;;59.35;13.98;;;;;;;;;;4989977;28;20702;-69
2022/01/27 05:12:44;;;;;;;51.92;13.35;;;;;;;;;;4990769;28;20068;-69
2022/01/27 05:15:10;;;;;;;54.13;14.45;;;;;;;;;;5004577;28;20738;-69
2022/01/27 05:17:36;;;;;;;53.58;14.05;;;;;;;;;;4990460;28;20027;-69
2022/01/27 05:20:01;;;;;;;62.08;14.48;;;;;;;;;;4976822;28;20156;-71
2022/01/27 05:22:27;;;;;;;51.35;13.60;;;;;;;;;;4988071;28;20038;-70
2022/01/27 05:24:52;;;;;;;57.78;13.88;;;;;;;;;;4990342;28;20037;-69
2022/01/27 05:27:17;;;;;;;55.13;14.30;;;;;;;;;;4989449;28;20038;-69
2022/01/27 05:29:45;;;;;;;56.90;13.77;;;;;;;;;;4989254;28;20065;-70
2022/01/27 05:32:11;;;;;;;57.65;14.15;;;;;;;;;;4989993;28;20049;-69
2022/01/27 05:34:36;;;;;;;61.47;14.63;;;;;;;;;;4983153;28;20039;-70
2022/01/27 05:37:01;;;;;;;59.83;14.60;;;;;;;;;;4993420;28;20153;-69
2022/01/27 05:39:27;;;;;;;59.70;13.65;;;;;;;;;;4988219;28;20402;-68
2022/01/27 05:41:52;;;;;;;50.90;13.57;;;;;;;;;;4988120;28;20120;-68
2022/01/27 05:44:18;;;;;;;56.85;14.45;;;;;;;;;;4989323;28;20071;-69
2022/01/27 05:46:43;;;;;;;54.92;14.52;;;;;;;;;;4989088;28;20117;-69
2022/01/27 05:49:09;;;;;;;51.75;14.82;;;;;;;;;;4988101;28;20496;-70
2022/01/27 05:51:34;;;;;;;54.05;12.50;;;;;;;;;;4988841;28;20038;-70
2022/01/27 05:53:59;;;;;;;54.15;13.77;;;;;;;;;;4987721;28;20026;-69
2022/01/27 05:56:25;;;;;;;52.67;14.45;;;;;;;;;;4988876;28;20657;-69
2022/01/27 05:58:50;;;;;;;57.30;12.57;;;;;;;;;;4988753;28;20419;-69
2022/01/27 06:01:16;;;;;;;54.65;12.82;;;;;;;;;;4989414;28;20103;-69
2022/01/27 06:03:42;;;;;;;57.35;14.23;;;;;;;;;;4988563;28;20437;-69
2022/01/27 06:06:08;;;;;;;55.63;13.57;;;;;;;;;;4988859;28;20204;-69
2022/01/27 06:08:36;;;;;;;54.05;12.90;;;;;;;;;;4988836;28;20034;-69
2022/01/27 06:11:01;;;;;;;56.50;14.05;;;;;;;;;;4988030;28;20032;-69
2022/01/27 06:13:27;;;;;;;65.25;14.27;;;;;;;;;;4976209;28;20435;-70
2022/01/27 06:15:52;;;;;;;56.63;14.38;;;;;;;;;;4988932;28;20033;-69
2022/01/27 06:18:18;;;;;;;64.60;12.88;;;;;;;;;;4988303;28;20061;-69
2022/01/27 06:20:45;;;;;;;54.17;13.35;;;;;;;;;;4988796;28;20611;-68
2022/01/27 06:23:11;;;;;;;57.22;14.15;;;;;;;;;;5002939;28;20397;-69
2022/01/27 06:25:40;;;;;;;54.70;13.77;;;;;;;;;;4988586;28;20737;-68
2022/01/27 06:28:05;;;;;;;63.47;13.57;;;;;;;;;;4988146;28;20040;-68
2022/01/27 06:30:34;;;;;;;62.30;13.90;;;;;;;;;;4988531;28;20033;-70
2022/01/27 06:33:00;;;;;;;52.38;13.13;;;;;;;;;;4988851;28;20050;-69
2022/01/27 06:35:26;;;;;;;49.70;12.77;;;;;;;;;;4987458;28;20033;-68
2022/01/27 06:37:52;;;;;;;63.22;15.13;;;;;;;;;;4987361;28;20060;-68
2022/01/27 06:40:17;;;;;;;59.40;14.43;;;;;;;;;;4988459;28;20029;-73
2022/01/27 06:42:43;;;;;;;64.97;14.52;;;;;;;;;;4992867;28;20033;-72
2022/01/27 06:45:09;;;;;;;69.35;13.68;;;;;;;;;;4986418;28;20033;-72
2022/01/27 06:47:34;;;;;;;74.57;15.07;;;;;;;;;;4993543;28;20123;-72
2022/01/27 06:49:59;;;;;;;85.05;16.65;;;;;;;;;;4988053;28;20029;-71
2022/01/27 06:52:27;;;;;;;58.92;14.55;;;;;;;;;;4975614;28;20117;-71
2022/01/27 06:54:54;;;;;;;81.05;17.10;;;;;;;;;;4987571;28;20027;-70
2022/01/27 06:57:20;;;;;;;66.25;15.00;;;;;;;;;;4988815;28;20034;-70
2022/01/27 06:59:46;;;;;;;65.47;15.88;;;;;;;;;;4975021;28;20061;-68
2022/01/27 07:02:11;;;;;;;71.38;14.65;;;;;;;;;;4988135;28;20033;-70
2022/01/27 07:04:37;;;;;;;82.78;16.58;;;;;;;;;;4987412;28;20276;-70
2022/01/27 07:07:02;;;;;;;76.45;15.95;;;;;;;;;;4991697;28;20040;-70
2022/01/27 07:09:28;;;;;;;67.63;15.35;;;;;;;;;;4975597;28;20136;-71
2022/01/27 07:11:53;;;;;;;65.38;13.85;;;;;;;;;;4975057;28;20030;-69
2022/01/27 07:14:19;;;;;;;69.32;15.10;;;;;;;;;;4987121;28;20037;-71
2022/01/27 07:16:44;;;;;;;68.63;15.88;;;;;;;;;;4987481;28;20494;-70
2022/01/27 07:19:10;;;;;;;71.97;16.15;;;;;;;;;;4969641;28;20041;-70
2022/01/27 07:21:35;;;;;;;77.47;16.10;;;;;;;;;;4987579;28;20465;-70
2022/01/27 07:24:01;;;;;;;75.25;15.27;;;;;;;;;;4987282;28;20719;-70
2022/01/27 07:26:26;;;;;;;77.57;16.42;;;;;;;;;;4987381;28;20104;-70
2022/01/27 07:28:55;;;;;;;77.70;17.17;;;;;;;;;;4985996;28;20117;-71
2022/01/27 07:31:23;;;;;;;57.88;13.75;;;;;;;;;;4988267;28;20036;-69
2022/01/27 07:33:49;;;;;;;75.05;15.65;;;;;;;;;;4987207;28;20088;-69
2022/01/27 07:36:15;;;;;;;65.97;15.02;;;;;;;;;;4986980;28;20521;-69
2022/01/27 07:38:45;;;;;;;58.03;14.43;;;;;;;;;;4986848;28;20026;-70
2022/01/27 07:41:15;;;;;;;60.80;14.45;;;;;;;;;;4987386;28;20072;-70
2022/01/27 07:43:40;;;;;;;63.88;15.05;;;;;;;;;;4986776;28;20107;-70
2022/01/27 07:46:06;;;;;;;63.75;14.73;;;;;;;;;;4987184;28;20034;-69
2022/01/27 07:48:32;;;;;;;68.53;15.93;;;;;;;;;;4986240;28;20505;-70
2022/01/27 07:51:03;;;;;;;57.83;13.57;;;;;;;;;;4991406;28;20652;-69
2022/01/27 07:53:29;;;;;;;55.60;13.70;;;;;;;;;;4991304;28;20666;-72
2022/01/27 07:55:56;;;;;;;72.78;14.18;;;;;;;;;;4991268;28;20117;-70
2022/01/27 07:58:24;;;;;;;52.88;13.52;;;;;;;;;;4987340;28;20726;-71
2022/01/27 08:00:50;;;;;;;56.67;13.60;;;;;;;;;;4991447;28;20075;-71
2022/01/27 08:03:17;;;;;;;66.30;13.60;;;;;;;;;;4987594;28;20026;-72
2022/01/27 08:05:43;;;;;;;59.78;12.18;;;;;;;;;;4987052;28;20374;-69
2022/01/27 08:08:08;;;;;;;51.95;12.07;;;;;;;;;;4990673;28;20026;-69
2022/01/27 08:10:37;;;;;;;60.50;13.25;;;;;;;;;;4987184;28;20505;-70
2022/01/27 08:13:09;;;;;;;66.20;13.50;;;;;;;;;;4990456;28;20045;-69
2022/01/27 08:15:34;;;;;;;;;;;;;;;;;;4987689;28;20570;-71
2022/01/27 08:18:00;;;;;;;64.90;13.48;;;;;;;;;;4991064;28;19944;-70
2022/01/27 08:20:26;;;;;;;48.88;12.40;;;;;;;;;;4990581;28;20026;-70
2022/01/27 08:22:54;;;;;;;64.70;12.70;;;;;;;;;;4990751;28;20076;-69
2022/01/27 08:25:22;;;;;;;45.33;12.35;;;;;;;;;;4990994;28;20112;-69
2022/01/27 08:27:53;;;;;;;51.88;12.63;;;;;;;;;;5005751;28;20026;-69
2022/01/27 08:30:20;;;;;;;55.30;11.60;;;;;;;;;;4990636;28;20061;-69
2022/01/27 08:32:56;;;;;;;59.30;12.50;;;;;;;;;;4990364;28;20029;-68
2022/01/27 08:35:21;;;;;;;70.70;13.02;;;;;;;;;;4990288;28;20037;-70
2022/01/27 08:37:46;;;;;;;59.45;12.07;;;;;;;;;;4990402;28;20046;-69
2022/01/27 08:40:14;;;;;;;63.17;12.35;;;;;;;;;;4978716;28;20538;-70
2022/01/27 08:42:43;;;;;;;64.13;12.43;;;;;;;;;;4978546;28;20530;-70
2022/01/27 08:45:12;;;;;;;55.88;11.48;;;;;;;;;;4990886;28;20952;-70
2022/01/27 08:47:42;;;;;;;54.03;12.02;;;;;;;;;;4990758;28;20029;-69
2022/01/27 08:50:09;;;;;;;59.20;12.68;;;;;;;;;;4990089;28;20030;-69
2022/01/27 08:52:37;;;;;;;60.10;12.88;;;;;;;;;;4990734;28;20030;-70
2022/01/27 08:55:07;;;;;;;46.45;11.23;;;;;;;;;;4994696;28;20031;-70
2022/01/27 08:57:33;;;;;;;55.20;11.20;;;;;;;;;;4990732;28;20377;-69
2022/01/27 09:00:02;;;;;;;54.25;11.25;;;;;;;;;;4994447;28;20048;-72
2022/01/27 09:02:27;;;;;;;50.70;12.40;;;;;;;;;;4994779;28;20037;-72
2022/01/27 09:04:53;;;;;;;62.15;11.75;;;;;;;;;;4989308;28;20034;-69
2022/01/27 09:07:19;;;;;;;47.35;9.70;;;;;;;;;;4994166;28;20532;-73
2022/01/27 09:09:45;;;;;;;53.42;10.85;;;;;;;;;;4990318;28;20113;-71
2022/01/27 09:12:12;;;;;;;46.92;10.65;;;;;;;;;;4990048;28;20072;-69
2022/01/27 09:14:41;;;;;;;59.78;11.10;;;;;;;;;;4989610;28;20022;-70
2022/01/27 09:17:08;;;;;;;49.10;10.73;;;;;;;;;;4990083;28;20104;-69
2022/01/27 09:19:37;;;;;;;54.10;10.93;;;;;;;;;;5004047;28;20095;-70
2022/01/27 09:22:12;;;;;;;51.05;10.48;;;;;;;;;;4990315;28;20046;-70
2022/01/27 09:24:40;;;;;;;;;;;;;;;;;;5005785;28;20220;-70
2022/01/27 09:27:06;;;;;;;50.65;10.20;;;;;;;;;;4990124;28;20439;-69
2022/01/27 09:29:31;;;;;;;59.55;10.00;;;;;;;;;;4988773;28;20109;-69
2022/01/27 09:31:58;;;;;;;41.22;10.10;;;;;;;;;;4989381;28;20029;-69
2022/01/27 09:34:23;;;;;;;56.95;11.23;;;;;;;;;;4988954;28;20387;-70
2022/01/27 09:36:49;;;;;;;71.40;10.95;;;;;;;;;;4989541;28;20060;-69
2022/01/27 09:39:15;;;;;;;68.35;10.88;;;;;;;;;;4989669;28;20034;-70
2022/01/27 09:41:42;;;;;;;71.97;11.13;;;;;;;;;;4989239;28;20030;-68
2022/01/27 09:44:10;;;;;;;59.00;11.95;;;;;;;;;;4989762;28;20065;-72
2022/01/27 09:46:43;;;;;;;60.95;9.65;;;;;;;;;;4993676;28;20045;-73
2022/01/27 09:49:18;;;;;;;58.03;10.85;;;;;;;;;;5003402;28;20196;-69
2022/01/27 09:51:45;;;;;;;54.65;10.32;;;;;;;;;;4989490;28;20041;-69
2022/01/27 09:54:16;;;;;;;54.33;10.32;;;;;;;;;;4987582;28;20085;-69
2022/01/27 09:56:42;;;;;;;48.20;9.73;;;;;;;;;;4994142;28;20057;-69
2022/01/27 09:59:10;;;;;;;53.55;9.68;;;;;;;;;;4976515;28;20022;-69
2022/01/27 10:01:36;;;;;;;53.17;8.60;;;;;;;;;;4989030;28;20173;-69
2022/01/27 10:04:06;;;;;;;52.20;9.13;;;;;;;;;;5003277;28;20138;-70
2022/01/27 10:06:33;;;;;;;47.95;8.43;;;;;;;;;;4993520;28;20601;-70
2022/01/27 10:09:14;;;;;;;45.50;9.50;;;;;;;;;;4976745;28;20117;-69
2022/01/27 10:11:43;;;;;;;58.63;8.43;;;;;;;;;;4977356;28;20078;-71
2022/01/27 10:14:22;;;;;;;59.40;9.43;;;;;;;;;;4989922;28;20534;-70
2022/01/27 10:16:50;;;;;;;53.55;9.02;;;;;;;;;;4988638;28;20052;-70
2022/01/27 10:19:16;;;;;;;46.08;9.15;;;;;;;;;;4988064;28;20096;-71
2022/01/27 10:21:41;;;;;;;52.58;9.27;;;;;;;;;;4989081;28;20041;-71
2022/01/27 10:24:13;;;;;;;49.50;10.60;;;;;;;;;;5002974;28;20118;-71
2022/01/27 10:26:45;;;;;;;52.53;8.63;;;;;;;;;;4989018;28;20030;-70
2022/01/27 10:29:15;;;;;;;58.50;9.40;;;;;;;;;;4988760;28;20033;-68
2022/01/27 10:31:44;;;;;;;64.13;9.38;;;;;;;;;;4988706;28;20074;-70
2022/01/27 10:34:10;;;;;;;55.85;8.85;;;;;;;;;;4987606;28;20022;-70
2022/01/27 10:36:40;;;;;;;49.80;8.57;;;;;;;;;;4988086;28;20053;-69
2022/01/27 10:39:08;;;;;;;;;;;;;;;;;;4988577;28;20034;-69
2022/01/27 10:41:38;;;;;;;43.85;8.10;;;;;;;;;;5003277;28;19979;-69
2022/01/27 10:44:05;;;;;;;57.67;8.93;;;;;;;;;;4988207;28;20042;-71
2022/01/27 10:46:31;;;;;;;45.05;9.60;;;;;;;;;;4976075;28;20037;-71
2022/01/27 10:49:05;;;;;;;55.90;8.73;;;;;;;;;;4992180;28;20041;-69
2022/01/27 10:51:41;;;;;;;46.88;8.45;;;;;;;;;;4987967;28;20060;-69
2022/01/27 10:54:37;;;;;;;45.33;7.72;;;;;;;;;;4992528;28;20033;-70
2022/01/27 10:56:52;;;;;;;56.47;8.73;;;;;;;;;;4988918;28;20553;-69
2022/01/27 10:59:19;;;;;;;55.90;9.57;;;;;;;;;;4988450;28;20030;-69
2022/01/27 11:01:51;;;;;;;51.45;8.05;;;;;;;;;;4988196;28;20152;-70
2022/01/27 11:04:18;;;;;;;52.63;8.43;;;;;;;;;;4987287;28;20463;-69
2022/01/27 11:06:52;;;;;;;46.63;7.63;;;;;;;;;;4988017;28;20580;-69
2022/01/27 11:09:19;;;;;;;50.72;10.15;;;;;;;;;;4987582;28;20029;-69
2022/01/27 11:11:49;;;;;;;43.63;8.77;;;;;;;;;;4986686;28;20048;-70
2022/01/27 11:14:17;;;;;;;54.38;10.38;;;;;;;;;;4987457;28;20212;-69
2022/01/27 11:16:45;;;;;;;48.70;9.82;;;;;;;;;;4991552;28;20579;-71
2022/01/27 11:19:21;;;;;;;44.50;8.63;;;;;;;;;;4987417;28;20254;-69
2022/01/27 11:21:51;;;;;;;40.38;7.47;;;;;;;;;;5001000;28;20096;-70
2022/01/27 11:24:25;;;;;;;56.65;8.15;;;;;;;;;;4991528;28;20067;-70
2022/01/27 11:26:52;;;;;;;52.15;8.68;;;;;;;;;;4988577;28;20793;-70
2022/01/27 11:29:17;;;;;;;46.20;8.43;;;;;;;;;;4986308;28;20053;-69
2022/01/27 11:31:57;;;;;;;48.33;8.23;;;;;;;;;;4987296;28;20033;-70
2022/01/27 11:34:22;;;;;;;44.95;7.70;;;;;;;;;;4986439;28;20422;-73
2022/01/27 11:37:18;;;;;;;43.65;7.95;;;;;;;;;;4987320;28;20052;-72
2022/01/27 11:39:54;;;;;;;38.28;8.65;;;;;;;;;;4985079;28;20037;-69
2022/01/27 11:42:34;;;;;;;35.08;8.90;;;;;;;;;;4989266;28;20038;-70
2022/01/27 11:45:20;;;;;;;32.88;7.43;;;;;;;;;;5002345;28;20033;-70
2022/01/27 11:48:06;;;;;;;45.10;7.82;;;;;;;;;;4986947;28;20502;-71
2022/01/27 11:52:59;;;;;;;39.95;8.23;;;;;;;;;;4987504;28;20445;-70
2022/01/27 11:55:24;;;;;;;44.55;7.43;;;;;;;;;;4987501;28;20030;-70
2022/01/27 11:57:59;;;;;;;41.92;7.43;;;;;;;;;;4986621;28;20096;-69
2022/01/27 12:00:27;;;;;;;47.30;7.47;;;;;;;;;;4974568;28;20056;-70
2022/01/27 12:02:58;;;;;;;46.22;8.35;;;;;;;;;;4974460;28;20750;-69
2022/01/27 12:05:24;;;;;;;35.95;7.20;;;;;;;;;;4985937;28;20026;-70
2022/01/27 12:08:08;;;;;;;39.28;7.15;;;;;;;;;;4958655;28;20395;-69
2022/01/27 12:10:57;;;;;;;39.65;7.20;;;;;;;;;;5001715;28;20058;-69
2022/01/27 12:16:10;;;;;;;35.08;7.35;;;;;;;;;;4987478;28;20446;-70
2022/01/27 12:18:36;;;;;;;41.03;6.90;;;;;;;;;;4986576;28;20470;-71
2022/01/27 12:21:21;;;;;;;44.85;6.97;;;;;;;;;;4976002;28;20029;-71
2022/01/27 12:24:05;;;;;;;39.22;7.78;;;;;;;;;;4987087;28;21855;-71
2022/01/27 12:26:47;;;;;;;44.13;7.10;;;;;;;;;;4991135;28;20587;-71
2022/01/27 12:29:20;;;;;;;43.15;7.70;;;;;;;;;;4986333;28;20038;-71
2022/01/27 12:31:46;;;;;;;35.88;6.38;;;;;;;;;;4986823;28;20033;-69
2022/01/27 12:34:17;;;;;;;36.55;7.30;;;;;;;;;;4986217;28;20026;-71
2022/01/27 12:36:52;;;;;;;34.40;6.80;;;;;;;;;;4986422;28;21955;-70
2022/01/27 12:39:21;;;;;;;37.58;6.80;;;;;;;;;;4991206;28;21870;-71
2022/01/27 12:41:48;;;;;;;41.05;5.85;;;;;;;;;;4986739;28;20218;-70
2022/01/27 12:44:13;;;;;;;40.15;7.13;;;;;;;;;;4987042;28;20034;-70
2022/01/27 12:46:39;;;;;;;39.85;6.60;;;;;;;;;;4986634;28;20061;-70
2022/01/27 12:49:07;;;;;;;38.60;7.28;;;;;;;;;;4990998;28;20530;-70
2022/01/27 12:51:50;;;;;;;45.10;7.60;;;;;;;;;;5001072;28;20298;-69
2022/01/27 12:54:24;;;;;;;42.78;6.63;;;;;;;;;;4987143;28;20030;-70
2022/01/27 12:56:52;;;;;;;52.08;7.55;;;;;;;;;;4987430;28;20039;-70
2022/01/27 12:59:21;;;;;;;50.30;7.80;;;;;;;;;;4986397;28;20465;-69
2022/01/27 13:01:56;;;;;;;32.25;7.65;;;;;;;;;;4985681;28;20319;-70
2022/01/27 13:04:26;;;;;;;37.45;6.85;;;;;;;;;;4993769;28;20058;-70
2022/01/27 13:06:56;;;;;;;46.03;6.95;;;;;;;;;;4993775;28;20081;-69
2022/01/27 13:09:21;;;;;;;39.35;7.10;;;;;;;;;;4962169;28;20040;-70
2022/01/27 13:11:48;;;;;;;36.38;6.18;;;;;;;;;;4990494;28;20057;-70
2022/01/27 13:14:14;;;;;;;40.65;7.05;;;;;;;;;;4978013;28;20100;-70
2022/01/27 13:16:41;;;;;;;43.53;6.55;;;;;;;;;;4989557;28;20030;-70
2022/01/27 13:19:21;;;;;;;42.20;6.75;;;;;;;;;;4989386;28;20434;-69
2022/01/27 13:21:52;;;;;;;40.03;6.82;;;;;;;;;;4989107;28;20036;-70
2022/01/27 13:24:19;;;;;;;36.63;6.93;;;;;;;;;;4977799;28;20084;-70
2022/01/27 13:26:46;;;;;;;40.72;6.75;;;;;;;;;;4990032;28;20073;-70
2022/01/27 13:29:15;;;;;;;36.40;6.57;;;;;;;;;;5004668;28;20077;-69
2022/01/27 13:31:41;;;;;;;34.08;5.53;;;;;;;;;;4989315;28;20033;-69
2022/01/27 13:34:07;;;;;;;37.90;6.13;;;;;;;;;;4988038;28;20134;-69
2022/01/27 13:36:36;;;;;;;37.38;5.35;;;;;;;;;;4967954;28;20046;-69
2022/01/27 13:41:34;;;;;;;;;;;;;;;;;;4990507;28;20285;-70
2022/01/27 13:43:59;;;;;;;41.97;5.88;;;;;;;;;;4993994;28;19921;-69
2022/01/27 13:46:47;;;;;;;39.42;5.82;;;;;;;;;;5004042;28;20512;-70
2022/01/27 13:49:21;;;;;;;38.22;5.75;;;;;;;;;;4989674;28;20092;-69
2022/01/27 13:51:53;;;;;;;33.35;5.65;;;;;;;;;;5003884;28;20812;-70
2022/01/27 13:54:31;;;;;;;32.30;4.47;;;;;;;;;;4993689;28;20095;-69
2022/01/27 13:57:23;;;;;;;39.97;5.25;;;;;;;;;;4989172;28;20035;-69
2022/01/27 13:59:56;;;;;;;31.10;4.75;;;;;;;;;;4988228;28;20030;-70
2022/01/27 14:02:32;;;;;;;32.92;4.72;;;;;;;;;;4988649;28;20050;-70
2022/01/27 14:05:09;;;;;;;34.47;6.38;;;;;;;;;;4988974;28;21855;-69
2022/01/27 14:07:38;;;;;;;38.63;5.32;;;;;;;;;;4987441;28;20038;-70
2022/01/27 14:10:09;;;;;;;34.78;5.28;;;;;;;;;;5004274;28;20049;-70
2022/01/27 14:12:48;;;;;;;40.33;5.82;;;;;;;;;;4989200;28;20080;-69
2022/01/27 14:15:35;;;;;;;38.13;5.90;;;;;;;;;;4987838;28;20029;-70
2022/01/27 14:18:20;;;;;;;35.72;5.45;;;;;;;;;;4988345;28;20034;-69
2022/01/27 14:20:54;;;;;;;39.28;5.72;;;;;;;;;;4988530;28;20034;-70
2022/01/27 14:23:32;;;;;;;33.83;4.93;;;;;;;;;;4988231;28;20038;-69
2022/01/27 14:26:00;;;;;;;33.33;4.53;;;;;;;;;;4988818;28;20077;-70
2022/01/27 14:28:27;;;;;;;31.88;5.07;;;;;;;;;;4988756;28;20029;-69
2022/01/27 14:30:52;;;;;;;33.38;5.00;;;;;;;;;;4975913;28;20026;-69
2022/01/27 14:33:18;;;;;;;30.73;4.85;;;;;;;;;;4988876;28;20042;-69
2022/01/27 14:35:44;;;;;;;38.20;4.30;;;;;;;;;;4987936;28;20037;-69
2022/01/27 14:38:09;;;;;;;27.17;4.60;;;;;;;;;;4988349;28;20120;-69
2022/01/27 14:40:35;;;;;;;29.27;4.82;;;;;;;;;;5002395;28;20236;-70
2022/01/27 14:43:02;;;;;;;38.28;5.43;;;;;;;;;;4989019;28;20408;-71
2022/01/27 14:45:28;;;;;;;34.33;5.15;;;;;;;;;;4986534;28;20030;-69
2022/01/27 14:48:01;;;;;;;35.95;5.35;;;;;;;;;;4988535;28;20399;-69
2022/01/27 14:50:30;;;;;;;40.67;5.00;;;;;;;;;;4988852;28;20624;-71
2022/01/27 14:52:57;;;;;;;37.38;5.22;;;;;;;;;;4987848;28;20048;-69
2022/01/27 14:55:23;;;;;;;29.58;4.45;;;;;;;;;;4988004;28;20084;-69
2022/01/27 14:57:48;;;;;;;34.63;4.30;;;;;;;;;;4988290;28;20034;-67
2022/01/27 15:00:15;;;;;;;30.30;4.82;;;;;;;;;;4987698;28;20034;-69
2022/01/27 15:02:40;;;;;;;32.58;5.43;;;;;;;;;;4987838;28;20420;-69
2022/01/27 15:05:06;;;;;;;37.80;4.88;;;;;;;;;;5002299;28;20033;-69
2022/01/27 15:07:32;;;;;;;36.85;4.82;;;;;;;;;;4987501;28;20397;-70
2022/01/27 15:09:57;;;;;;;37.95;5.05;;;;;;;;;;4986386;28;20034;-69
2022/01/27 15:12:25;;;;;;;31.95;4.75;;;;;;;;;;5002128;28;20081;-70
2022/01/27 15:20:19;;;;;;;30.60;3.80;;;;;;;;;;4987828;28;20125;-69
2022/01/27 15:22:44;;;;;;;31.83;5.05;;;;;;;;;;5002386;28;20022;-70